WetterOnline ( https://www.wetteronline.de )

Wetter aktuell Berlin

Aktuelles Wetter: Berlin-Tegel (37m)

6-stündlich | Neueste Meldungen
Ortszeit Temperatur Wetter
Do, 26.11. 13:00 5.5° C bedeckt
Do, 26.11. 7:00 1.5° C bewölkt
Do, 26.11. 1:00 -0.1° C wolkenlos
Mi, 25.11. 19:00 1.4° C fast wolkenlos
Mi, 25.11. 13:00 1.9° C bedeckt
Mi, 25.11. 7:00 0.3° C Nebel
Mi, 25.11. 1:00 0.8° C leicht bewölkt
Di, 24.11. 19:00 4.4° C wolkenlos
Ortszeit Temperatur Wetter
Do, 26.11. 14:30 6.1° C Sprühregen
Do, 26.11. 14:20 6.1° C -
Do, 26.11. 14:10 6.1° C Regen
Do, 26.11. 14:00 6.1° C Sprühregen
Do, 26.11. 13:50 6.1° C Regen
Do, 26.11. 13:40 6.2° C -
Do, 26.11. 13:30 5.9° C bedeckt
Do, 26.11. 13:00 5.5° C bedeckt
Do, 26.11. 12:30 4.9° C bedeckt
Do, 26.11. 12:00 4.4° C bedeckt
Do, 26.11. 11:30 4.1° C bedeckt
Ortszeit Relative Feuchte Sichtweite
Do, 26.11. 13:00 91% 10 km
Do, 26.11. 7:00 95% 15 km
Do, 26.11. 1:00 96% 25 km
Mi, 25.11. 19:00 98% 15 km
Mi, 25.11. 13:00 98% 2.8 km
Mi, 25.11. 7:00 100% 0.7 km
Mi, 25.11. 1:00 97% 35 km
Di, 24.11. 19:00 87% 40 km
Ortszeit Relative Feuchte Sichtweite
Do, 26.11. 14:30 97% 5.0 km
Do, 26.11. 14:20 97% -
Do, 26.11. 14:10 96% -
Do, 26.11. 14:00 93% 4.0 km
Do, 26.11. 13:50 93% -
Do, 26.11. 13:40 91% -
Do, 26.11. 13:30 91% 12 km
Do, 26.11. 13:00 91% 10 km
Do, 26.11. 12:30 92% 7 km
Do, 26.11. 12:00 94% 6 km
Do, 26.11. 11:30 97% 4.5 km
Ortszeit Niederschlagsmenge Niederschlagsart
Do, 26.11. 13:00 0.1 l/m2 in 6 Std. Sprühregen
Do, 26.11. 7:00 0.0 l/m2 in 12 Std. -
Do, 26.11. 1:00 0.0 l/m2 in 6 Std. -
Mi, 25.11. 19:00 0.0 l/m2 in 12 Std. -
Mi, 25.11. 13:00 0.0 l/m2 in 6 Std. Nebel
Mi, 25.11. 7:00 0.0 l/m2 in 12 Std. Nebel
Mi, 25.11. 1:00 0.0 l/m2 in 6 Std. -
Di, 24.11. 19:00 0.0 l/m2 in 12 Std. -
Ortszeit Niederschlagsmenge Niederschlagsart
Do, 26.11. 14:30 0.7 l/m2 in 1 Std. -
Do, 26.11. 14:20 keine Meldung -
Do, 26.11. 14:10 keine Meldung -
Do, 26.11. 14:00 0.1 l/m2 in 1 Std. -
Do, 26.11. 13:50 keine Meldung -
Do, 26.11. 13:40 keine Meldung -
Do, 26.11. 13:30 0.0 l/m2 in 1 Std. -
Do, 26.11. 13:00 0.0 l/m2 in 1 Std. Sprühregen
Do, 26.11. 12:30 0.0 l/m2 in 1 Std. -
Do, 26.11. 12:00 keine Meldung -
Do, 26.11. 11:30 0.0 l/m2 in 1 Std. -
Ortszeit Stärke Spitze Richtung
km/h Bft. km/h Grad Sektor
Do, 26.11. 13:00 11 2 17 200° S
Do, 26.11. 7:00 7 2 11 180° S
Do, 26.11. 1:00 6 1 15 190° S
Mi, 25.11. 19:00 4 1 18 80° O
Mi, 25.11. 13:00 9 2 22 200° S
Mi, 25.11. 7:00 13 3 19 200° S
Mi, 25.11. 1:00 7 2 14 160° S
Di, 24.11. 19:00 7 2 18 190° S
Ortszeit Stärke Spitze Richtung
km/h Bft. km/h Grad Sektor
Do, 26.11. 14:30 11 2 14 210° SW
Do, 26.11. 14:20 11 2 - 210° SW
Do, 26.11. 14:10 7 2 - 210° SW
Do, 26.11. 14:00 9 2 17 220° SW
Do, 26.11. 13:50 9 2 - 220° SW
Do, 26.11. 13:40 11 2 - 220° SW
Do, 26.11. 13:30 11 2 14 200° S
Do, 26.11. 13:00 11 2 15 200° S
Do, 26.11. 12:30 11 2 14 200° S
Do, 26.11. 12:00 11 2 18 200° S
Do, 26.11. 11:30 11 2 18 190° S
Ortszeit Untergrenze Bedeckung Gattung
total tief tief mittel hoch
Do, 26.11. 13:00 360 m 8/8 8/8 Sc - -
Do, 26.11. 7:00 780 m 7/8 7/8 Sc - -
Do, 26.11. 1:00 - 0/8 0/8 - - -
Mi, 25.11. 19:00 7500 m 1/8 0/8 - - Ci
Mi, 25.11. 13:00 90 m 8/8 8/8 St - -
Mi, 25.11. 7:00 30 m 8/8 8/8 St - -
Mi, 25.11. 1:00 7500 m 4/8 0/8 - - Ci
Di, 24.11. 19:00 - 0/8 0/8 - - -
Ortszeit Bedeckungsgrad in Achtel und Wolkenuntergrenze
Do, 26.11. 14:30 5(240m) 8(360m)
Do, 26.11. 14:20 -
Do, 26.11. 14:10 -
Do, 26.11. 14:00 5(240m) 8(390m)
Do, 26.11. 13:50 -
Do, 26.11. 13:40 -
Do, 26.11. 13:30 8(300m)
Do, 26.11. 13:00 8(360m)
Do, 26.11. 12:30 8(300m)
Do, 26.11. 12:00 8(360m)
Do, 26.11. 11:30 3(240m) 8(360m)
Ortszeit Luftdruck NN (hPa) Tendenz (hPa in 3 Std.)
Do, 26.11. 13:00 1020 - 0,8
Do, 26.11. 7:00 1020 - 0,2
Do, 26.11. 1:00 1020 + 0,4
Mi, 25.11. 19:00 1020 + 0,1
Mi, 25.11. 13:00 1020 - 0,7
Mi, 25.11. 7:00 1021 - 0,2
Mi, 25.11. 1:00 1022 - 1,5
Di, 24.11. 19:00 1024 - 0,5
Ortszeit Luftdruck NN (hPa) Tendenz (hPa in 3 Std.)
Do, 26.11. 14:30 1020 - 0,6
Do, 26.11. 14:20 1020 keine Meldung
Do, 26.11. 14:10 1020 keine Meldung
Do, 26.11. 14:00 1020 - 0,9
Do, 26.11. 13:50 1020 keine Meldung
Do, 26.11. 13:40 1020 keine Meldung
Do, 26.11. 13:30 1020 - 1,0
Do, 26.11. 13:00 1020 - 0,8
Do, 26.11. 12:30 1020 - 0,7
Do, 26.11. 12:00 1020 - 0,4
Do, 26.11. 11:30 1020 - 0,2
Ortszeit Schneehöhe (cm)
Do, 26.11. 13:00 0
Do, 26.11. 7:00 0
Do, 26.11. 1:00 0
Mi, 25.11. 19:00 0
Mi, 25.11. 13:00 0
Mi, 25.11. 7:00 0
Mi, 25.11. 1:00 0
Di, 24.11. 19:00 0
Ortszeit Schneehöhe (cm)
Do, 26.11. 14:30 -
Do, 26.11. 14:20 -
Do, 26.11. 14:10 -
Do, 26.11. 14:00 -
Do, 26.11. 13:50 -
Do, 26.11. 13:40 -
Do, 26.11. 13:30 -
Do, 26.11. 13:00 0
Do, 26.11. 12:30 -
Do, 26.11. 12:00 -
Do, 26.11. 11:30 -
Link zu dieser Seite / Seite empfehlen

Das Wetter in ...